sensor_id;sensor_type;location;lat;lon;timestamp;temperature;humidity
25939;DHT22;13739;51.172;4.466;2023-01-24T00:00:34;3.90;99.90
25939;DHT22;13739;51.172;4.466;2023-01-24T00:03:00;3.90;99.90
25939;DHT22;13739;51.172;4.466;2023-01-24T00:05:25;3.90;99.90
25939;DHT22;13739;51.172;4.466;2023-01-24T00:07:51;3.90;99.90
25939;DHT22;13739;51.172;4.466;2023-01-24T00:10:17;3.80;99.90
25939;DHT22;13739;51.172;4.466;2023-01-24T00:12:43;3.80;99.90
25939;DHT22;13739;51.172;4.466;2023-01-24T00:15:09;3.80;99.90
25939;DHT22;13739;51.172;4.466;2023-01-24T00:17:35;3.80;99.90
25939;DHT22;13739;51.172;4.466;2023-01-24T00:20:00;3.80;99.90
25939;DHT22;13739;51.172;4.466;2023-01-24T00:22:26;3.80;99.90
25939;DHT22;13739;51.172;4.466;2023-01-24T00:24:52;3.70;99.90
25939;DHT22;13739;51.172;4.466;2023-01-24T00:27:17;3.60;99.90
25939;DHT22;13739;51.172;4.466;2023-01-24T00:29:43;3.60;99.90
25939;DHT22;13739;51.172;4.466;2023-01-24T00:32:09;3.60;99.90
25939;DHT22;13739;51.172;4.466;2023-01-24T00:34:35;3.60;99.90
25939;DHT22;13739;51.172;4.466;2023-01-24T00:37:00;3.60;99.90
25939;DHT22;13739;51.172;4.466;2023-01-24T00:39:26;3.70;99.90
25939;DHT22;13739;51.172;4.466;2023-01-24T00:41:51;3.80;99.90
25939;DHT22;13739;51.172;4.466;2023-01-24T00:44:17;3.80;99.90
25939;DHT22;13739;51.172;4.466;2023-01-24T00:46:43;3.70;99.90
25939;DHT22;13739;51.172;4.466;2023-01-24T00:49:09;3.70;99.90
25939;DHT22;13739;51.172;4.466;2023-01-24T00:51:34;3.60;99.90
25939;DHT22;13739;51.172;4.466;2023-01-24T00:54:00;3.60;99.90
25939;DHT22;13739;51.172;4.466;2023-01-24T00:56:26;3.60;99.90
25939;DHT22;13739;51.172;4.466;2023-01-24T00:58:52;3.60;99.90
25939;DHT22;13739;51.172;4.466;2023-01-24T01:01:17;3.70;99.90
25939;DHT22;13739;51.172;4.466;2023-01-24T01:03:43;3.60;99.90
25939;DHT22;13739;51.172;4.466;2023-01-24T01:06:15;3.70;99.90
25939;DHT22;13739;51.172;4.466;2023-01-24T01:08:42;3.70;99.90
25939;DHT22;13739;51.172;4.466;2023-01-24T01:11:07;3.70;99.90
25939;DHT22;13739;51.172;4.466;2023-01-24T01:13:33;3.70;99.90
25939;DHT22;13739;51.172;4.466;2023-01-24T01:16:12;3.80;99.90
25939;DHT22;13739;51.172;4.466;2023-01-24T01:18:38;3.70;99.90
25939;DHT22;13739;51.172;4.466;2023-01-24T01:21:05;3.70;99.90
25939;DHT22;13739;51.172;4.466;2023-01-24T01:23:31;3.70;99.90
25939;DHT22;13739;51.172;4.466;2023-01-24T01:26:01;3.70;99.90
25939;DHT22;13739;51.172;4.466;2023-01-24T01:28:27;3.70;99.90
25939;DHT22;13739;51.172;4.466;2023-01-24T01:30:54;3.70;99.90
25939;DHT22;13739;51.172;4.466;2023-01-24T01:33:20;3.80;99.90
25939;DHT22;13739;51.172;4.466;2023-01-24T01:35:47;3.80;99.90
25939;DHT22;13739;51.172;4.466;2023-01-24T01:38:13;3.80;99.90
25939;DHT22;13739;51.172;4.466;2023-01-24T01:40:38;3.80;99.90
25939;DHT22;13739;51.172;4.466;2023-01-24T01:43:09;3.70;99.90
25939;DHT22;13739;51.172;4.466;2023-01-24T01:45:46;3.60;99.90
25939;DHT22;13739;51.172;4.466;2023-01-24T01:48:14;3.50;99.90
25939;DHT22;13739;51.172;4.466;2023-01-24T01:50:56;3.60;99.90
25939;DHT22;13739;51.172;4.466;2023-01-24T01:53:26;3.50;99.90
25939;DHT22;13739;51.172;4.466;2023-01-24T01:55:57;3.50;99.90
25939;DHT22;13739;51.172;4.466;2023-01-24T01:58:25;3.60;99.90
25939;DHT22;13739;51.172;4.466;2023-01-24T02:00:51;3.70;99.90
25939;DHT22;13739;51.172;4.466;2023-01-24T02:03:22;3.60;99.90
25939;DHT22;13739;51.172;4.466;2023-01-24T02:06:03;3.70;99.90
25939;DHT22;13739;51.172;4.466;2023-01-24T02:08:30;3.90;99.90
25939;DHT22;13739;51.172;4.466;2023-01-24T02:10:57;3.90;99.90
25939;DHT22;13739;51.172;4.466;2023-01-24T02:13:43;3.90;99.90
25939;DHT22;13739;51.172;4.466;2023-01-24T02:16:11;3.90;99.90
25939;DHT22;13739;51.172;4.466;2023-01-24T02:18:39;3.90;99.90
25939;DHT22;13739;51.172;4.466;2023-01-24T02:21:14;3.90;99.90
25939;DHT22;13739;51.172;4.466;2023-01-24T02:23:58;3.80;99.90
25939;DHT22;13739;51.172;4.466;2023-01-24T02:26:26;3.80;99.90
25939;DHT22;13739;51.172;4.466;2023-01-24T02:31:28;3.90;99.90
25939;DHT22;13739;51.172;4.466;2023-01-24T02:33:53;3.80;99.90
25939;DHT22;13739;51.172;4.466;2023-01-24T02:36:24;3.90;99.90
25939;DHT22;13739;51.172;4.466;2023-01-24T02:38:58;4.00;99.90
25939;DHT22;13739;51.172;4.466;2023-01-24T02:41:29;4.00;99.90
25939;DHT22;13739;51.172;4.466;2023-01-24T02:44:00;4.10;99.90
25939;DHT22;13739;51.172;4.466;2023-01-24T02:46:29;4.10;99.90
25939;DHT22;13739;51.172;4.466;2023-01-24T02:48:55;4.10;99.90
25939;DHT22;13739;51.172;4.466;2023-01-24T02:51:21;4.10;99.90
25939;DHT22;13739;51.172;4.466;2023-01-24T02:54:05;4.00;99.90
25939;DHT22;13739;51.172;4.466;2023-01-24T02:56:30;4.00;99.90
25939;DHT22;13739;51.172;4.466;2023-01-24T02:59:14;3.90;99.90
25939;DHT22;13739;51.172;4.466;2023-01-24T03:01:40;4.00;99.90
25939;DHT22;13739;51.172;4.466;2023-01-24T03:04:06;4.00;99.90
25939;DHT22;13739;51.172;4.466;2023-01-24T03:06:31;4.10;99.90
25939;DHT22;13739;51.172;4.466;2023-01-24T03:08:57;4.00;99.90
25939;DHT22;13739;51.172;4.466;2023-01-24T03:11:23;4.10;99.90
25939;DHT22;13739;51.172;4.466;2023-01-24T03:13:49;3.90;99.90
25939;DHT22;13739;51.172;4.466;2023-01-24T03:16:33;3.80;99.90
25939;DHT22;13739;51.172;4.466;2023-01-24T03:19:17;3.90;99.90
25939;DHT22;13739;51.172;4.466;2023-01-24T03:22:01;3.80;99.90
25939;DHT22;13739;51.172;4.466;2023-01-24T03:24:45;3.70;99.90
25939;DHT22;13739;51.172;4.466;2023-01-24T03:27:30;3.70;99.90
25939;DHT22;13739;51.172;4.466;2023-01-24T03:30:14;3.70;99.90
25939;DHT22;13739;51.172;4.466;2023-01-24T03:33:00;3.70;99.90
25939;DHT22;13739;51.172;4.466;2023-01-24T03:35:45;3.70;99.90
25939;DHT22;13739;51.172;4.466;2023-01-24T03:38:20;3.70;99.90
25939;DHT22;13739;51.172;4.466;2023-01-24T03:41:04;3.80;99.90
25939;DHT22;13739;51.172;4.466;2023-01-24T03:43:30;3.80;99.90
25939;DHT22;13739;51.172;4.466;2023-01-24T03:45:55;3.70;99.90
25939;DHT22;13739;51.172;4.466;2023-01-24T03:48:21;3.70;99.90
25939;DHT22;13739;51.172;4.466;2023-01-24T03:50:52;3.60;99.90
25939;DHT22;13739;51.172;4.466;2023-01-24T03:53:37;3.60;99.90
25939;DHT22;13739;51.172;4.466;2023-01-24T03:56:03;3.60;99.90
25939;DHT22;13739;51.172;4.466;2023-01-24T03:58:31;3.60;99.90
25939;DHT22;13739;51.172;4.466;2023-01-24T04:00:57;3.70;99.90
25939;DHT22;13739;51.172;4.466;2023-01-24T04:03:24;3.70;99.90
25939;DHT22;13739;51.172;4.466;2023-01-24T04:05:50;3.60;99.90
25939;DHT22;13739;51.172;4.466;2023-01-24T04:08:17;3.50;99.90
25939;DHT22;13739;51.172;4.466;2023-01-24T04:10:42;3.60;99.90
25939;DHT22;13739;51.172;4.466;2023-01-24T04:13:09;3.70;99.90
25939;DHT22;13739;51.172;4.466;2023-01-24T04:15:35;3.80;99.90
25939;DHT22;13739;51.172;4.466;2023-01-24T04:18:02;3.90;99.90
25939;DHT22;13739;51.172;4.466;2023-01-24T04:20:31;3.80;99.90
25939;DHT22;13739;51.172;4.466;2023-01-24T04:23:00;3.70;99.90
25939;DHT22;13739;51.172;4.466;2023-01-24T04:25:26;3.70;99.90
25939;DHT22;13739;51.172;4.466;2023-01-24T04:27:51;3.70;99.90
25939;DHT22;13739;51.172;4.466;2023-01-24T04:30:17;3.70;99.90
25939;DHT22;13739;51.172;4.466;2023-01-24T04:32:43;3.70;99.90
25939;DHT22;13739;51.172;4.466;2023-01-24T04:35:14;3.70;99.90
25939;DHT22;13739;51.172;4.466;2023-01-24T04:37:40;3.80;99.90
25939;DHT22;13739;51.172;4.466;2023-01-24T04:40:07;3.70;99.90
25939;DHT22;13739;51.172;4.466;2023-01-24T04:42:32;3.70;99.90
25939;DHT22;13739;51.172;4.466;2023-01-24T04:44:58;3.70;99.90
25939;DHT22;13739;51.172;4.466;2023-01-24T04:47:24;3.70;99.90
25939;DHT22;13739;51.172;4.466;2023-01-24T04:49:51;3.60;99.90
25939;DHT22;13739;51.172;4.466;2023-01-24T04:52:17;3.60;99.90
25939;DHT22;13739;51.172;4.466;2023-01-24T04:54:43;3.60;99.90
25939;DHT22;13739;51.172;4.466;2023-01-24T04:57:11;3.70;99.90
25939;DHT22;13739;51.172;4.466;2023-01-24T04:59:37;3.70;99.90
25939;DHT22;13739;51.172;4.466;2023-01-24T05:02:02;3.60;99.90
25939;DHT22;13739;51.172;4.466;2023-01-24T05:04:28;3.50;99.90
25939;DHT22;13739;51.172;4.466;2023-01-24T05:06:54;3.60;99.90
25939;DHT22;13739;51.172;4.466;2023-01-24T05:09:20;3.60;99.90
25939;DHT22;13739;51.172;4.466;2023-01-24T05:11:46;3.70;99.90
25939;DHT22;13739;51.172;4.466;2023-01-24T05:14:12;3.70;99.90
25939;DHT22;13739;51.172;4.466;2023-01-24T05:16:38;3.80;99.90
25939;DHT22;13739;51.172;4.466;2023-01-24T05:19:04;3.90;99.90
25939;DHT22;13739;51.172;4.466;2023-01-24T05:21:30;3.80;99.90
25939;DHT22;13739;51.172;4.466;2023-01-24T05:23:56;3.70;99.90
25939;DHT22;13739;51.172;4.466;2023-01-24T05:26:23;3.70;99.90
25939;DHT22;13739;51.172;4.466;2023-01-24T05:28:50;3.70;99.90
25939;DHT22;13739;51.172;4.466;2023-01-24T05:31:16;3.60;99.90
25939;DHT22;13739;51.172;4.466;2023-01-24T05:33:42;3.70;99.90
25939;DHT22;13739;51.172;4.466;2023-01-24T05:36:10;3.80;99.90
25939;DHT22;13739;51.172;4.466;2023-01-24T05:38:36;3.80;99.90
25939;DHT22;13739;51.172;4.466;2023-01-24T05:41:11;3.70;99.90
25939;DHT22;13739;51.172;4.466;2023-01-24T05:43:37;3.50;99.90
25939;DHT22;13739;51.172;4.466;2023-01-24T05:46:06;3.60;99.90
25939;DHT22;13739;51.172;4.466;2023-01-24T05:48:32;3.50;99.90
25939;DHT22;13739;51.172;4.466;2023-01-24T05:51:04;3.50;99.90
25939;DHT22;13739;51.172;4.466;2023-01-24T05:53:33;3.50;99.90
25939;DHT22;13739;51.172;4.466;2023-01-24T05:56:00;3.60;99.90
25939;DHT22;13739;51.172;4.466;2023-01-24T05:58:30;3.60;99.90
25939;DHT22;13739;51.172;4.466;2023-01-24T06:00:57;3.50;99.90
25939;DHT22;13739;51.172;4.466;2023-01-24T06:03:23;3.50;99.90
25939;DHT22;13739;51.172;4.466;2023-01-24T06:05:50;3.50;99.90
25939;DHT22;13739;51.172;4.466;2023-01-24T06:08:18;3.50;99.90
25939;DHT22;13739;51.172;4.466;2023-01-24T06:10:44;3.50;99.90
25939;DHT22;13739;51.172;4.466;2023-01-24T06:13:10;3.60;99.90
25939;DHT22;13739;51.172;4.466;2023-01-24T06:15:37;3.60;99.90
25939;DHT22;13739;51.172;4.466;2023-01-24T06:18:03;3.60;99.90
25939;DHT22;13739;51.172;4.466;2023-01-24T06:20:29;3.70;99.90
25939;DHT22;13739;51.172;4.466;2023-01-24T06:23:04;3.70;99.90
25939;DHT22;13739;51.172;4.466;2023-01-24T06:25:30;3.60;99.90
25939;DHT22;13739;51.172;4.466;2023-01-24T06:27:56;3.60;99.90
25939;DHT22;13739;51.172;4.466;2023-01-24T06:30:22;3.60;99.90
25939;DHT22;13739;51.172;4.466;2023-01-24T06:38:30;3.70;99.90
25939;DHT22;13739;51.172;4.466;2023-01-24T06:40:59;3.70;99.90
25939;DHT22;13739;51.172;4.466;2023-01-24T06:43:25;3.70;99.90
25939;DHT22;13739;51.172;4.466;2023-01-24T06:45:51;3.70;99.90
25939;DHT22;13739;51.172;4.466;2023-01-24T06:48:17;3.70;99.90
25939;DHT22;13739;51.172;4.466;2023-01-24T06:50:42;3.80;99.90
25939;DHT22;13739;51.172;4.466;2023-01-24T06:53:09;3.80;99.90
25939;DHT22;13739;51.172;4.466;2023-01-24T06:55:35;3.60;99.90
25939;DHT22;13739;51.172;4.466;2023-01-24T06:58:02;3.50;99.90
25939;DHT22;13739;51.172;4.466;2023-01-24T07:00:29;3.50;99.90
25939;DHT22;13739;51.172;4.466;2023-01-24T07:03:05;3.50;99.90
25939;DHT22;13739;51.172;4.466;2023-01-24T07:05:32;3.40;99.90
25939;DHT22;13739;51.172;4.466;2023-01-24T07:07:58;3.50;99.90
25939;DHT22;13739;51.172;4.466;2023-01-24T07:10:24;3.40;99.90
25939;DHT22;13739;51.172;4.466;2023-01-24T07:12:50;3.50;99.90
25939;DHT22;13739;51.172;4.466;2023-01-24T07:15:16;3.50;99.90
25939;DHT22;13739;51.172;4.466;2023-01-24T07:17:45;3.40;99.90
25939;DHT22;13739;51.172;4.466;2023-01-24T07:20:12;3.50;99.90
25939;DHT22;13739;51.172;4.466;2023-01-24T07:22:39;3.50;99.90
25939;DHT22;13739;51.172;4.466;2023-01-24T07:25:14;3.50;99.90
25939;DHT22;13739;51.172;4.466;2023-01-24T07:27:42;3.60;99.90
25939;DHT22;13739;51.172;4.466;2023-01-24T07:30:10;3.50;99.90
25939;DHT22;13739;51.172;4.466;2023-01-24T07:32:36;3.40;99.90
25939;DHT22;13739;51.172;4.466;2023-01-24T07:35:02;3.50;99.90
25939;DHT22;13739;51.172;4.466;2023-01-24T07:37:29;3.60;99.90
25939;DHT22;13739;51.172;4.466;2023-01-24T07:39:55;3.70;99.90
25939;DHT22;13739;51.172;4.466;2023-01-24T07:42:20;3.60;99.90
25939;DHT22;13739;51.172;4.466;2023-01-24T07:44:46;3.50;99.90
25939;DHT22;13739;51.172;4.466;2023-01-24T07:47:11;3.50;99.90
25939;DHT22;13739;51.172;4.466;2023-01-24T07:49:37;3.50;99.90
25939;DHT22;13739;51.172;4.466;2023-01-24T07:52:03;3.50;99.90
25939;DHT22;13739;51.172;4.466;2023-01-24T07:54:28;3.50;99.90
25939;DHT22;13739;51.172;4.466;2023-01-24T07:56:54;3.60;99.90
25939;DHT22;13739;51.172;4.466;2023-01-24T07:59:19;3.60;99.90
25939;DHT22;13739;51.172;4.466;2023-01-24T08:01:45;3.60;99.90
25939;DHT22;13739;51.172;4.466;2023-01-24T08:04:11;3.50;99.90
25939;DHT22;13739;51.172;4.466;2023-01-24T08:06:38;3.40;99.90
25939;DHT22;13739;51.172;4.466;2023-01-24T08:09:24;3.40;99.90
25939;DHT22;13739;51.172;4.466;2023-01-24T08:11:50;3.50;99.90
25939;DHT22;13739;51.172;4.466;2023-01-24T08:14:15;3.60;99.90
25939;DHT22;13739;51.172;4.466;2023-01-24T08:16:41;3.50;99.90
25939;DHT22;13739;51.172;4.466;2023-01-24T08:19:07;3.40;99.90
25939;DHT22;13739;51.172;4.466;2023-01-24T08:21:32;3.40;99.90
25939;DHT22;13739;51.172;4.466;2023-01-24T08:23:58;3.40;99.90
25939;DHT22;13739;51.172;4.466;2023-01-24T08:26:24;3.40;99.90
25939;DHT22;13739;51.172;4.466;2023-01-24T08:28:49;3.40;99.90
25939;DHT22;13739;51.172;4.466;2023-01-24T08:31:15;3.40;99.90
25939;DHT22;13739;51.172;4.466;2023-01-24T08:33:41;3.50;99.90
25939;DHT22;13739;51.172;4.466;2023-01-24T08:36:08;3.60;99.90
25939;DHT22;13739;51.172;4.466;2023-01-24T08:38:33;3.50;99.90
25939;DHT22;13739;51.172;4.466;2023-01-24T08:41:03;3.50;99.90
25939;DHT22;13739;51.172;4.466;2023-01-24T08:43:29;3.50;99.90
25939;DHT22;13739;51.172;4.466;2023-01-24T08:45:55;3.50;99.90
25939;DHT22;13739;51.172;4.466;2023-01-24T08:48:21;3.60;99.90
25939;DHT22;13739;51.172;4.466;2023-01-24T08:50:47;3.50;99.90
25939;DHT22;13739;51.172;4.466;2023-01-24T08:53:13;3.50;99.90
25939;DHT22;13739;51.172;4.466;2023-01-24T08:55:40;3.50;99.90
25939;DHT22;13739;51.172;4.466;2023-01-24T08:58:06;3.50;99.90
25939;DHT22;13739;51.172;4.466;2023-01-24T09:00:32;3.60;99.90
25939;DHT22;13739;51.172;4.466;2023-01-24T09:02:58;3.30;99.90
25939;DHT22;13739;51.172;4.466;2023-01-24T09:05:29;3.60;99.90
25939;DHT22;13739;51.172;4.466;2023-01-24T09:07:55;3.60;99.90
25939;DHT22;13739;51.172;4.466;2023-01-24T09:10:21;3.50;99.90
25939;DHT22;13739;51.172;4.466;2023-01-24T09:12:47;3.40;99.90
25939;DHT22;13739;51.172;4.466;2023-01-24T09:15:13;3.40;99.90
25939;DHT22;13739;51.172;4.466;2023-01-24T09:17:40;3.40;99.90
25939;DHT22;13739;51.172;4.466;2023-01-24T09:20:07;3.30;99.90
25939;DHT22;13739;51.172;4.466;2023-01-24T09:22:35;3.30;99.90
25939;DHT22;13739;51.172;4.466;2023-01-24T09:25:01;3.30;99.90
25939;DHT22;13739;51.172;4.466;2023-01-24T09:27:31;3.30;99.90
25939;DHT22;13739;51.172;4.466;2023-01-24T09:29:57;3.30;99.90
25939;DHT22;13739;51.172;4.466;2023-01-24T09:32:25;3.40;99.90
25939;DHT22;13739;51.172;4.466;2023-01-24T09:34:51;3.40;99.90
25939;DHT22;13739;51.172;4.466;2023-01-24T09:37:20;3.50;99.90
25939;DHT22;13739;51.172;4.466;2023-01-24T09:39:46;3.50;99.90
25939;DHT22;13739;51.172;4.466;2023-01-24T09:50:22;3.80;99.90
25939;DHT22;13739;51.172;4.466;2023-01-24T09:52:54;4.00;99.90
25939;DHT22;13739;51.172;4.466;2023-01-24T10:00:38;3.80;99.90
25939;DHT22;13739;51.172;4.466;2023-01-24T10:03:21;3.90;99.90
25939;DHT22;13739;51.172;4.466;2023-01-24T10:05:53;4.00;99.90
25939;DHT22;13739;51.172;4.466;2023-01-24T10:11:28;3.90;99.90
25939;DHT22;13739;51.172;4.466;2023-01-24T10:25:35;4.00;99.90
25939;DHT22;13739;51.172;4.466;2023-01-24T10:28:12;4.00;99.90
25939;DHT22;13739;51.172;4.466;2023-01-24T10:30:58;3.90;99.90
25939;DHT22;13739;51.172;4.466;2023-01-24T10:33:30;3.90;99.90
25939;DHT22;13739;51.172;4.466;2023-01-24T10:38:37;3.90;99.90
25939;DHT22;13739;51.172;4.466;2023-01-24T10:41:25;4.10;99.90
25939;DHT22;13739;51.172;4.466;2023-01-24T10:44:14;4.20;99.90
25939;DHT22;13739;51.172;4.466;2023-01-24T10:46:49;4.00;99.90
25939;DHT22;13739;51.172;4.466;2023-01-24T10:49:36;4.10;99.90
25939;DHT22;13739;51.172;4.466;2023-01-24T10:52:20;4.10;99.90
25939;DHT22;13739;51.172;4.466;2023-01-24T10:54:52;3.90;99.90
25939;DHT22;13739;51.172;4.466;2023-01-24T11:00:27;3.70;99.90
25939;DHT22;13739;51.172;4.466;2023-01-24T11:02:59;3.90;99.90
25939;DHT22;13739;51.172;4.466;2023-01-24T11:05:39;3.80;99.90
25939;DHT22;13739;51.172;4.466;2023-01-24T11:08:10;3.70;99.90
25939;DHT22;13739;51.172;4.466;2023-01-24T11:10:41;3.60;99.90
25939;DHT22;13739;51.172;4.466;2023-01-24T11:13:32;3.90;99.90
25939;DHT22;13739;51.172;4.466;2023-01-24T11:18:58;4.10;99.90
25939;DHT22;13739;51.172;4.466;2023-01-24T11:21:27;4.10;99.90
25939;DHT22;13739;51.172;4.466;2023-01-24T11:24:22;3.90;99.90
25939;DHT22;13739;51.172;4.466;2023-01-24T11:27:14;4.20;99.90
25939;DHT22;13739;51.172;4.466;2023-01-24T11:29:40;4.10;99.90
25939;DHT22;13739;51.172;4.466;2023-01-24T11:35:16;4.20;99.90
25939;DHT22;13739;51.172;4.466;2023-01-24T11:41:10;4.40;99.90
25939;DHT22;13739;51.172;4.466;2023-01-24T11:43:57;4.40;99.90
25939;DHT22;13739;51.172;4.466;2023-01-24T11:46:51;4.20;99.90
25939;DHT22;13739;51.172;4.466;2023-01-24T11:58:05;4.10;99.90
25939;DHT22;13739;51.172;4.466;2023-01-24T12:06:09;4.10;99.90
25939;DHT22;13739;51.172;4.466;2023-01-24T12:11:16;4.40;99.90
25939;DHT22;13739;51.172;4.466;2023-01-24T12:13:48;4.30;99.90
25939;DHT22;13739;51.172;4.466;2023-01-24T12:16:23;4.50;99.90
25939;DHT22;13739;51.172;4.466;2023-01-24T12:19:08;4.30;99.90
25939;DHT22;13739;51.172;4.466;2023-01-24T12:21:40;4.30;99.90
25939;DHT22;13739;51.172;4.466;2023-01-24T12:24:36;4.50;99.90
25939;DHT22;13739;51.172;4.466;2023-01-24T12:27:09;4.30;99.90
25939;DHT22;13739;51.172;4.466;2023-01-24T12:30:36;4.20;99.90
25939;DHT22;13739;51.172;4.466;2023-01-24T12:35:47;4.30;99.90
25939;DHT22;13739;51.172;4.466;2023-01-24T12:41:36;4.20;99.90
25939;DHT22;13739;51.172;4.466;2023-01-24T12:50:02;4.00;99.90
25939;DHT22;13739;51.172;4.466;2023-01-24T12:58:04;4.30;99.90
25939;DHT22;13739;51.172;4.466;2023-01-24T13:11:54;4.30;99.90
25939;DHT22;13739;51.172;4.466;2023-01-24T13:14:41;4.30;99.90
25939;DHT22;13739;51.172;4.466;2023-01-24T13:33:12;4.70;99.90
25939;DHT22;13739;51.172;4.466;2023-01-24T13:35:49;4.50;99.90
25939;DHT22;13739;51.172;4.466;2023-01-24T13:38:25;4.50;99.90
25939;DHT22;13739;51.172;4.466;2023-01-24T13:41:04;4.60;99.90
25939;DHT22;13739;51.172;4.466;2023-01-24T13:44:01;4.40;99.90
25939;DHT22;13739;51.172;4.466;2023-01-24T13:49:18;4.60;99.90
25939;DHT22;13739;51.172;4.466;2023-01-24T13:51:48;4.60;99.90
25939;DHT22;13739;51.172;4.466;2023-01-24T13:59:32;4.70;99.90
25939;DHT22;13739;51.172;4.466;2023-01-24T14:02:02;4.60;99.90
25939;DHT22;13739;51.172;4.466;2023-01-24T14:04:42;4.40;99.90
25939;DHT22;13739;51.172;4.466;2023-01-24T14:07:24;4.50;99.90
25939;DHT22;13739;51.172;4.466;2023-01-24T14:09:57;4.20;99.90
25939;DHT22;13739;51.172;4.466;2023-01-24T14:12:27;4.10;99.90
25939;DHT22;13739;51.172;4.466;2023-01-24T14:20:20;4.10;99.90
25939;DHT22;13739;51.172;4.466;2023-01-24T14:22:47;3.90;99.90
25939;DHT22;13739;51.172;4.466;2023-01-24T14:25:38;4.10;99.90
25939;DHT22;13739;51.172;4.466;2023-01-24T14:28:20;4.30;99.90
25939;DHT22;13739;51.172;4.466;2023-01-24T14:30:54;4.40;99.90
25939;DHT22;13739;51.172;4.466;2023-01-24T14:36:34;4.30;99.90
25939;DHT22;13739;51.172;4.466;2023-01-24T14:39:20;4.30;99.90
25939;DHT22;13739;51.172;4.466;2023-01-24T14:41:51;4.10;99.90
25939;DHT22;13739;51.172;4.466;2023-01-24T14:44:24;4.10;99.90
25939;DHT22;13739;51.172;4.466;2023-01-24T14:47:02;4.20;99.90
25939;DHT22;13739;51.172;4.466;2023-01-24T14:49:51;4.20;99.90
25939;DHT22;13739;51.172;4.466;2023-01-24T14:52:26;4.10;99.90
25939;DHT22;13739;51.172;4.466;2023-01-24T14:54:55;4.10;99.90
25939;DHT22;13739;51.172;4.466;2023-01-24T14:57:32;4.00;99.90
25939;DHT22;13739;51.172;4.466;2023-01-24T15:02:49;4.20;99.90
25939;DHT22;13739;51.172;4.466;2023-01-24T15:05:36;4.10;99.90
25939;DHT22;13739;51.172;4.466;2023-01-24T15:08:05;4.50;99.90
25939;DHT22;13739;51.172;4.466;2023-01-24T15:10:34;4.30;99.90
25939;DHT22;13739;51.172;4.466;2023-01-24T15:13:07;4.10;99.90
25939;DHT22;13739;51.172;4.466;2023-01-24T15:15:35;4.10;99.90
25939;DHT22;13739;51.172;4.466;2023-01-24T15:18:07;3.90;99.90
25939;DHT22;13739;51.172;4.466;2023-01-24T15:20:47;3.90;99.90
25939;DHT22;13739;51.172;4.466;2023-01-24T15:23:19;4.10;99.90
25939;DHT22;13739;51.172;4.466;2023-01-24T15:25:46;3.90;99.90
25939;DHT22;13739;51.172;4.466;2023-01-24T15:28:28;3.90;99.90
25939;DHT22;13739;51.172;4.466;2023-01-24T15:30:57;4.00;99.90
25939;DHT22;13739;51.172;4.466;2023-01-24T15:33:57;3.70;99.90
25939;DHT22;13739;51.172;4.466;2023-01-24T15:38:55;4.10;99.90
25939;DHT22;13739;51.172;4.466;2023-01-24T15:41:25;4.10;99.90
25939;DHT22;13739;51.172;4.466;2023-01-24T15:44:11;4.20;99.90
25939;DHT22;13739;51.172;4.466;2023-01-24T15:46:45;4.20;99.90
25939;DHT22;13739;51.172;4.466;2023-01-24T15:49:55;3.70;99.90
25939;DHT22;13739;51.172;4.466;2023-01-24T15:52:23;3.90;99.90
25939;DHT22;13739;51.172;4.466;2023-01-24T15:54:57;3.70;99.90
25939;DHT22;13739;51.172;4.466;2023-01-24T15:57:31;3.80;99.90
25939;DHT22;13739;51.172;4.466;2023-01-24T16:00:00;3.90;99.90
25939;DHT22;13739;51.172;4.466;2023-01-24T16:02:28;3.80;99.90
25939;DHT22;13739;51.172;4.466;2023-01-24T16:04:54;3.80;99.90
25939;DHT22;13739;51.172;4.466;2023-01-24T16:07:20;3.90;99.90
25939;DHT22;13739;51.172;4.466;2023-01-24T16:09:47;3.90;99.90
25939;DHT22;13739;51.172;4.466;2023-01-24T16:12:15;3.80;99.90
25939;DHT22;13739;51.172;4.466;2023-01-24T16:14:53;3.70;99.90
25939;DHT22;13739;51.172;4.466;2023-01-24T16:17:21;4.00;99.90
25939;DHT22;13739;51.172;4.466;2023-01-24T16:19:48;3.90;99.90
25939;DHT22;13739;51.172;4.466;2023-01-24T16:22:14;4.00;99.90
25939;DHT22;13739;51.172;4.466;2023-01-24T16:24:41;3.90;99.90
25939;DHT22;13739;51.172;4.466;2023-01-24T16:27:10;3.80;99.90
25939;DHT22;13739;51.172;4.466;2023-01-24T16:29:39;3.70;99.90
25939;DHT22;13739;51.172;4.466;2023-01-24T16:32:22;3.70;99.90
25939;DHT22;13739;51.172;4.466;2023-01-24T16:34:48;3.80;99.90
25939;DHT22;13739;51.172;4.466;2023-01-24T16:37:14;3.70;99.90
25939;DHT22;13739;51.172;4.466;2023-01-24T16:39:40;3.70;99.90
25939;DHT22;13739;51.172;4.466;2023-01-24T16:42:18;3.70;99.90
25939;DHT22;13739;51.172;4.466;2023-01-24T16:44:59;4.10;99.90
25939;DHT22;13739;51.172;4.466;2023-01-24T16:47:26;3.70;99.90
25939;DHT22;13739;51.172;4.466;2023-01-24T16:49:53;3.70;99.90
25939;DHT22;13739;51.172;4.466;2023-01-24T16:52:20;3.80;99.90
25939;DHT22;13739;51.172;4.466;2023-01-24T16:54:46;3.80;99.90
25939;DHT22;13739;51.172;4.466;2023-01-24T16:57:18;3.60;99.90
25939;DHT22;13739;51.172;4.466;2023-01-24T16:59:44;3.60;99.90
25939;DHT22;13739;51.172;4.466;2023-01-24T17:02:16;3.80;99.90
25939;DHT22;13739;51.172;4.466;2023-01-24T17:04:45;3.60;99.90
25939;DHT22;13739;51.172;4.466;2023-01-24T17:07:12;3.50;99.90
25939;DHT22;13739;51.172;4.466;2023-01-24T17:09:38;3.50;99.90
25939;DHT22;13739;51.172;4.466;2023-01-24T17:12:06;3.50;99.90
25939;DHT22;13739;51.172;4.466;2023-01-24T17:14:35;3.30;99.90
25939;DHT22;13739;51.172;4.466;2023-01-24T17:17:01;3.10;99.90
25939;DHT22;13739;51.172;4.466;2023-01-24T17:19:27;3.20;99.90
25939;DHT22;13739;51.172;4.466;2023-01-24T17:21:53;3.30;99.90
25939;DHT22;13739;51.172;4.466;2023-01-24T17:24:19;3.30;99.90
25939;DHT22;13739;51.172;4.466;2023-01-24T17:26:48;3.40;99.90
25939;DHT22;13739;51.172;4.466;2023-01-24T17:29:14;3.40;99.90
25939;DHT22;13739;51.172;4.466;2023-01-24T17:31:40;3.50;99.90
25939;DHT22;13739;51.172;4.466;2023-01-24T17:34:06;3.60;99.90
25939;DHT22;13739;51.172;4.466;2023-01-24T17:36:32;3.60;99.90
25939;DHT22;13739;51.172;4.466;2023-01-24T17:38:58;3.60;99.90
25939;DHT22;13739;51.172;4.466;2023-01-24T17:41:24;3.70;99.90
25939;DHT22;13739;51.172;4.466;2023-01-24T17:43:50;3.50;99.90
25939;DHT22;13739;51.172;4.466;2023-01-24T17:46:17;3.50;99.90
25939;DHT22;13739;51.172;4.466;2023-01-24T17:48:43;3.50;99.90
25939;DHT22;13739;51.172;4.466;2023-01-24T17:51:14;3.60;99.90
25939;DHT22;13739;51.172;4.466;2023-01-24T17:53:45;3.50;99.90
25939;DHT22;13739;51.172;4.466;2023-01-24T17:56:13;3.30;99.90
25939;DHT22;13739;51.172;4.466;2023-01-24T17:58:46;3.40;99.90
25939;DHT22;13739;51.172;4.466;2023-01-24T18:01:12;3.50;99.90
25939;DHT22;13739;51.172;4.466;2023-01-24T18:03:42;3.60;99.90
25939;DHT22;13739;51.172;4.466;2023-01-24T18:06:08;3.60;99.90
25939;DHT22;13739;51.172;4.466;2023-01-24T18:08:34;3.50;99.90
25939;DHT22;13739;51.172;4.466;2023-01-24T18:11:07;3.50;99.90
25939;DHT22;13739;51.172;4.466;2023-01-24T18:13:35;3.50;99.90
25939;DHT22;13739;51.172;4.466;2023-01-24T18:16:04;3.30;99.90
25939;DHT22;13739;51.172;4.466;2023-01-24T18:18:31;3.40;99.90